Time;durP1;ratioP1;P1;durP2;ratioP2;P2;SDS_P1;SDS_P2;PMS_P1;PMS_P2;Temp;Humidity;BMP_temperature;BMP_pressure;BME280_temperature;BME280_humidity;BME280_pressure;Samples;Min_cycle;Max_cycle;Signal;HPM_P1;HPM_P2
2022/11/27 00:02:09;;;;;;;8.80;8.10;;;4.20;99.90;;;;;;4969086;28;20185;-67
2022/11/27 00:04:34;;;;;;;9.30;7.23;;;4.20;99.90;;;;;;4972827;28;20566;-67
2022/11/27 00:07:00;;;;;;;12.60;8.03;;;4.30;99.90;;;;;;4973385;28;20181;-67
2022/11/27 00:09:25;;;;;;;12.33;7.80;;;4.30;99.90;;;;;;4972430;28;20204;-67
2022/11/27 00:11:51;;;;;;;8.33;7.53;;;4.30;99.90;;;;;;4973218;28;20190;-67
2022/11/27 00:14:17;;;;;;;10.20;9.30;;;4.30;99.90;;;;;;4973292;28;20213;-67
2022/11/27 00:16:43;;;;;;;15.20;7.53;;;4.30;99.90;;;;;;4973082;28;20180;-67
2022/11/27 00:19:10;;;;;;;9.10;8.13;;;4.30;99.90;;;;;;4972587;28;20173;-67
2022/11/27 00:21:36;;;;;;;10.97;9.50;;;4.30;99.90;;;;;;4972785;28;20216;-67
2022/11/27 00:24:04;;;;;;;8.83;8.07;;;4.30;99.90;;;;;;4973021;28;20298;-67
2022/11/27 00:26:31;;;;;;;10.43;7.10;;;4.30;99.90;;;;;;4972814;28;20188;-67
2022/11/27 00:28:57;;;;;;;7.47;6.97;;;4.30;99.90;;;;;;4972691;28;20169;-67
2022/11/27 00:31:29;;;;;;;8.63;8.00;;;4.40;99.90;;;;;;4972622;28;20224;-67
2022/11/27 00:33:58;;;;;;;8.13;7.33;;;4.40;99.90;;;;;;4972488;28;20271;-67
2022/11/27 00:36:25;;;;;;;7.97;7.10;;;4.40;99.90;;;;;;4972905;28;20174;-67
2022/11/27 00:38:51;;;;;;;11.13;8.43;;;4.40;99.90;;;;;;4972529;28;20220;-67
2022/11/27 00:41:20;;;;;;;17.07;7.90;;;4.40;99.90;;;;;;4972714;28;20169;-67
2022/11/27 00:43:47;;;;;;;10.73;8.37;;;4.40;99.90;;;;;;4972253;28;20197;-67
2022/11/27 00:46:13;;;;;;;8.87;8.10;;;4.30;99.90;;;;;;4955551;28;20189;-67
2022/11/27 00:48:39;;;;;;;12.40;9.87;;;4.30;99.90;;;;;;4972188;28;20205;-67
2022/11/27 00:51:07;;;;;;;11.30;9.37;;;4.30;99.90;;;;;;4972740;28;20189;-67
2022/11/27 00:53:34;;;;;;;8.53;7.63;;;4.30;99.90;;;;;;4972122;28;20209;-67
2022/11/27 00:56:00;;;;;;;8.57;7.97;;;4.30;99.90;;;;;;4972263;28;20181;-69
2022/11/27 00:58:26;;;;;;;8.93;8.07;;;4.30;99.90;;;;;;4972450;28;20559;-67
2022/11/27 01:01:00;;;;;;;9.40;8.57;;;4.30;99.90;;;;;;4971616;28;20655;-67
2022/11/27 01:03:26;;;;;;;7.27;6.77;;;4.30;99.90;;;;;;4972298;28;20182;-67
2022/11/27 01:05:52;;;;;;;8.10;7.57;;;4.40;99.90;;;;;;4954969;28;20930;-66
2022/11/27 01:08:18;;;;;;;12.87;7.53;;;4.30;99.90;;;;;;4972304;28;20178;-66
2022/11/27 01:10:55;;;;;;;7.80;7.20;;;4.30;99.90;;;;;;4974871;28;20710;-67
2022/11/27 01:13:25;;;;;;;7.90;7.40;;;4.30;99.90;;;;;;4975976;28;20237;-66
2022/11/27 01:16:02;;;;;;;9.70;7.67;;;4.30;99.90;;;;;;4976337;28;20177;-67
2022/11/27 01:18:28;;;;;;;7.37;6.67;;;4.40;99.90;;;;;;4976298;28;20181;-67
2022/11/27 01:20:55;;;;;;;18.60;8.37;;;4.40;99.90;;;;;;4975663;28;20255;-67
2022/11/27 01:23:22;;;;;;;9.77;6.80;;;4.40;99.90;;;;;;4976065;28;20178;-67
2022/11/27 01:28:16;;;;;;;6.57;6.07;;;6.30;99.90;;;;;;4975234;28;20233;-69
2022/11/27 01:30:41;;;;;;;9.63;6.73;;;4.50;99.90;;;;;;4975538;28;20177;-68
2022/11/27 01:33:07;;;;;;;7.67;6.20;;;4.60;99.90;;;;;;4976169;28;20216;-68
2022/11/27 01:35:33;;;;;;;5.70;5.40;;;4.60;99.90;;;;;;4976016;28;20201;-68
2022/11/27 01:37:58;;;;;;;7.13;6.63;;;4.60;99.90;;;;;;4976055;28;20193;-68
2022/11/27 01:40:24;;;;;;;12.27;6.77;;;4.60;99.90;;;;;;4975467;28;20291;-68
2022/11/27 01:42:50;;;;;;;7.17;6.67;;;4.70;99.90;;;;;;4975561;28;20553;-67
2022/11/27 01:45:18;;;;;;;7.17;6.60;;;4.90;99.90;;;;;;4975600;28;20232;-68
2022/11/27 01:47:54;;;;;;;7.43;6.83;;;4.70;99.90;;;;;;4976162;28;20251;-67
2022/11/27 01:50:33;;;;;;;7.17;6.27;;;4.70;99.90;;;;;;4954847;28;20182;-68
2022/11/27 01:53:18;;;;;;;8.40;6.70;;;4.70;99.90;;;;;;4969122;28;20634;-68
2022/11/27 01:55:55;;;;;;;7.20;6.57;;;4.70;99.90;;;;;;4957830;28;20205;-68
2022/11/27 01:58:26;;;;;;;6.70;6.20;;;4.70;99.90;;;;;;4975570;28;20536;-68
2022/11/27 02:00:52;;;;;;;6.20;5.90;;;4.70;99.90;;;;;;4973791;28;20173;-68
2022/11/27 02:03:18;;;;;;;7.30;6.70;;;4.60;99.90;;;;;;4955161;28;20215;-68
2022/11/27 02:05:44;;;;;;;7.33;6.53;;;4.60;99.90;;;;;;4968662;28;20837;-68
2022/11/27 02:08:13;;;;;;;8.90;6.70;;;4.60;99.90;;;;;;4975468;28;20268;-68
2022/11/27 02:10:50;;;;;;;6.17;5.77;;;4.60;99.90;;;;;;4957409;28;20543;-68
2022/11/27 02:13:28;;;;;;;7.17;6.57;;;4.60;99.90;;;;;;4957935;28;20213;-69
2022/11/27 02:15:56;;;;;;;12.87;6.70;;;4.50;99.90;;;;;;4956335;28;20546;-68
2022/11/27 02:18:49;;;;;;;9.73;8.30;;;4.50;99.90;;;;;;4959060;28;20182;-68
2022/11/27 02:21:55;;;;;;;7.13;6.73;;;4.50;99.90;;;;;;4956572;28;20550;-67
2022/11/27 02:25:07;;;;;;;7.77;7.23;;;4.50;99.90;;;;;;4954972;28;20547;-68
2022/11/27 02:27:49;;;;;;;7.87;7.20;;;4.40;99.90;;;;;;4912705;29;20695;-68
2022/11/27 02:30:15;;;;;;;7.27;6.37;;;4.40;99.90;;;;;;4970397;28;20194;-67
2022/11/27 02:32:58;;;;;;;11.70;7.17;;;4.30;99.90;;;;;;4974934;28;20220;-68
2022/11/27 02:35:49;;;;;;;10.57;7.33;;;4.30;99.90;;;;;;4975110;28;20217;-67
2022/11/27 02:38:21;;;;;;;8.27;7.67;;;4.30;99.90;;;;;;4975061;28;20182;-68
2022/11/27 02:40:59;;;;;;;7.87;7.33;;;4.30;99.90;;;;;;4974589;28;20507;-68
2022/11/27 02:43:36;;;;;;;8.23;7.50;;;4.30;99.90;;;;;;4957414;28;20618;-67
2022/11/27 02:46:05;;;;;;;8.33;7.63;;;4.30;99.90;;;;;;4960487;28;20269;-68
2022/11/27 02:48:35;;;;;;;8.70;7.97;;;4.30;99.90;;;;;;4974925;28;20189;-67
2022/11/27 02:51:04;;;;;;;9.53;8.57;;;4.30;99.90;;;;;;4974383;28;20193;-68
2022/11/27 02:53:39;;;;;;;8.77;7.53;;;4.30;99.90;;;;;;4957336;28;20263;-68
2022/11/27 02:56:09;;;;;;;14.20;9.00;;;4.30;99.90;;;;;;4974469;28;20268;-67
2022/11/27 02:58:36;;;;;;;8.23;7.50;;;4.20;99.90;;;;;;4974536;28;20221;-67
2022/11/27 03:01:04;;;;;;;8.50;7.93;;;4.30;99.90;;;;;;4974018;28;20643;-67
2022/11/27 03:03:37;;;;;;;8.97;8.33;;;4.20;99.90;;;;;;4953976;28;20581;-68
2022/11/27 03:06:09;;;;;;;12.27;8.77;;;4.20;99.90;;;;;;4955452;29;20522;-68
2022/11/27 03:08:45;;;;;;;8.27;7.53;;;4.30;99.90;;;;;;4972046;28;20595;-67
2022/11/27 03:11:14;;;;;;;7.77;7.30;;;4.30;99.90;;;;;;4974178;28;20209;-68
2022/11/27 03:13:47;;;;;;;8.90;7.60;;;4.30;99.90;;;;;;4973929;28;20217;-68
2022/11/27 03:16:15;;;;;;;8.10;7.50;;;4.30;99.90;;;;;;4974131;28;20213;-68
2022/11/27 03:18:56;;;;;;;10.73;7.60;;;4.30;99.90;;;;;;4974135;28;20178;-69
2022/11/27 03:21:38;;;;;;;12.97;8.40;;;4.30;99.90;;;;;;4956108;28;20183;-67
2022/11/27 03:24:05;;;;;;;9.43;8.57;;;4.30;99.90;;;;;;4956950;28;20296;-68
2022/11/27 03:26:31;;;;;;;9.97;9.00;;;4.30;99.90;;;;;;4972605;28;20284;-68
2022/11/27 03:28:59;;;;;;;9.93;8.83;;;4.30;99.90;;;;;;4974232;28;20718;-68
2022/11/27 03:31:25;;;;;;;10.57;9.03;;;4.30;99.90;;;;;;4973653;28;20221;-68
2022/11/27 03:33:53;;;;;;;10.23;8.53;;;4.40;99.90;;;;;;4973733;28;20202;-68
2022/11/27 03:36:20;;;;;;;12.30;7.80;;;4.40;99.90;;;;;;4973925;28;20182;-68
2022/11/27 03:38:49;;;;;;;14.93;8.27;;;4.40;99.90;;;;;;4953319;29;20182;-68
2022/11/27 03:41:43;;;;;;;10.20;9.23;;;4.40;99.90;;;;;;4971197;28;20647;-68
2022/11/27 03:44:28;;;;;;;15.40;8.97;;;4.50;99.90;;;;;;4973874;28;20577;-68
2022/11/27 03:47:25;;;;;;;11.63;9.63;;;4.50;99.90;;;;;;4960412;28;20213;-67
2022/11/27 03:50:15;;;;;;;9.40;8.60;;;4.60;99.90;;;;;;4973085;28;20181;-67
2022/11/27 03:53:07;;;;;;;10.07;8.57;;;4.60;99.90;;;;;;4973385;28;20340;-67
2022/11/27 03:55:51;;;;;;;11.87;8.83;;;4.60;99.90;;;;;;4972855;28;20205;-67
2022/11/27 03:58:43;;;;;;;15.10;9.90;;;4.60;99.90;;;;;;4973275;28;20182;-67
2022/11/27 04:01:13;;;;;;;8.13;7.60;;;4.70;99.90;;;;;;4972626;28;20647;-68
2022/11/27 04:03:38;;;;;;;9.13;8.07;;;4.70;99.90;;;;;;4972497;28;20569;-66
2022/11/27 04:06:04;;;;;;;11.00;9.37;;;4.70;99.90;;;;;;4959373;28;20272;-68
2022/11/27 04:08:30;;;;;;;12.20;8.97;;;4.70;99.90;;;;;;4973578;28;20228;-68
2022/11/27 04:10:55;;;;;;;17.33;9.23;;;4.80;99.90;;;;;;4972300;28;20169;-68
2022/11/27 04:13:21;;;;;;;11.03;9.53;;;4.80;99.90;;;;;;4973266;28;20193;-68
2022/11/27 04:15:46;;;;;;;13.30;8.73;;;4.80;99.90;;;;;;4973037;28;20360;-67
2022/11/27 04:18:12;;;;;;;17.80;9.70;;;4.80;99.90;;;;;;4954846;28;20186;-68
2022/11/27 04:20:38;;;;;;;14.40;10.03;;;4.80;99.90;;;;;;4972765;28;20265;-69
2022/11/27 04:23:03;;;;;;;11.10;9.70;;;4.80;99.90;;;;;;4972965;28;20662;-67
2022/11/27 04:25:29;;;;;;;12.23;9.50;;;4.80;99.90;;;;;;4973200;28;20194;-67
2022/11/27 04:27:55;;;;;;;16.90;9.17;;;4.90;99.90;;;;;;4973076;28;20196;-68
2022/11/27 04:30:21;;;;;;;9.53;8.10;;;4.80;99.90;;;;;;4955021;28;20189;-68
2022/11/27 04:32:46;;;;;;;12.27;8.93;;;5.80;99.90;;;;;;4955254;28;20268;-68
2022/11/27 04:35:12;;;;;;;9.70;8.80;;;4.90;99.90;;;;;;4972765;28;20303;-68
2022/11/27 04:37:38;;;;;;;10.43;9.17;;;4.90;99.90;;;;;;4972404;28;20228;-68
2022/11/27 04:40:04;;;;;;;9.73;8.07;;;4.90;99.90;;;;;;4954984;28;20546;-67
2022/11/27 04:42:30;;;;;;;14.53;9.00;;;4.90;99.90;;;;;;4955190;28;20662;-67
2022/11/27 04:44:56;;;;;;;11.50;9.23;;;5.00;99.90;;;;;;4954880;28;20197;-68
2022/11/27 04:47:21;;;;;;;10.47;8.67;;;4.90;99.90;;;;;;4952164;28;20178;-67
2022/11/27 04:49:47;;;;;;;8.40;7.70;;;5.00;99.90;;;;;;4967582;28;20269;-68
2022/11/27 04:52:12;;;;;;;12.10;9.57;;;4.80;99.90;;;;;;4973149;28;20193;-68
2022/11/27 04:54:38;;;;;;;11.07;10.03;;;5.00;99.90;;;;;;4972489;28;20282;-69
2022/11/27 04:57:04;;;;;;;10.17;8.90;;;5.00;99.90;;;;;;4972291;28;20579;-67
2022/11/27 04:59:30;;;;;;;13.47;8.53;;;5.00;99.90;;;;;;4972213;28;20223;-68
2022/11/27 05:01:55;;;;;;;8.60;7.90;;;5.00;99.90;;;;;;4972304;28;20663;-67
2022/11/27 05:04:21;;;;;;;9.90;8.77;;;5.10;99.90;;;;;;4954889;28;20273;-68
2022/11/27 05:06:47;;;;;;;11.23;8.37;;;6.70;99.90;;;;;;4972069;28;20188;-68
2022/11/27 05:09:13;;;;;;;16.57;9.03;;;5.10;99.90;;;;;;4972431;28;20267;-68
2022/11/27 05:11:38;;;;;;;9.17;8.37;;;5.10;99.90;;;;;;4972046;28;20542;-68
2022/11/27 05:14:21;;;;;;;8.97;8.23;;;5.10;99.90;;;;;;4972631;28;20690;-68
2022/11/27 05:16:52;;;;;;;14.03;10.00;;;5.10;99.90;;;;;;4972277;28;20611;-68
2022/11/27 05:19:21;;;;;;;10.83;8.80;;;5.10;99.90;;;;;;4972157;28;20173;-68
2022/11/27 05:21:48;;;;;;;12.97;8.60;;;5.10;99.90;;;;;;4972392;28;20277;-66
2022/11/27 05:24:15;;;;;;;10.13;9.13;;;5.10;99.90;;;;;;4972418;28;20201;-68
2022/11/27 05:26:41;;;;;;;10.27;9.30;;;5.10;99.90;;;;;;4972188;28;20204;-69
2022/11/27 05:29:07;;;;;;;18.07;8.93;;;5.10;99.90;;;;;;4951085;29;20182;-68
2022/11/27 05:31:34;;;;;;;10.43;8.03;;;5.10;99.90;;;;;;4956481;28;20560;-67
2022/11/27 05:33:59;;;;;;;24.57;9.03;;;5.10;99.90;;;;;;4955031;28;20252;-68
2022/11/27 05:36:25;;;;;;;12.00;8.53;;;5.10;99.90;;;;;;4972159;28;20186;-68
2022/11/27 05:38:51;;;;;;;9.13;8.33;;;5.10;99.90;;;;;;4972140;28;20196;-68
2022/11/27 05:41:16;;;;;;;9.97;8.90;;;5.10;99.90;;;;;;4954430;28;20174;-68
2022/11/27 05:43:42;;;;;;;15.37;8.73;;;5.20;99.90;;;;;;4972266;28;20186;-68
2022/11/27 05:46:11;;;;;;;9.10;8.23;;;5.10;99.90;;;;;;4972170;28;20260;-68
2022/11/27 05:48:37;;;;;;;10.50;8.60;;;5.20;99.90;;;;;;4954618;28;20181;-68
2022/11/27 05:51:03;;;;;;;10.63;9.57;;;5.20;99.90;;;;;;4972289;28;20207;-67
2022/11/27 05:53:29;;;;;;;10.43;9.33;;;5.20;99.90;;;;;;4971975;28;20198;-68
2022/11/27 05:56:01;;;;;;;13.73;8.83;;;5.10;99.90;;;;;;4956861;28;20204;-68
2022/11/27 05:58:26;;;;;;;8.27;7.60;;;5.10;99.90;;;;;;4975480;28;20307;-68
2022/11/27 06:00:52;;;;;;;9.03;8.33;;;5.10;99.90;;;;;;4974708;28;20273;-68
2022/11/27 06:03:18;;;;;;;15.33;8.77;;;5.20;99.90;;;;;;4974387;28;20181;-68
2022/11/27 06:05:44;;;;;;;8.07;7.40;;;5.20;99.90;;;;;;4972942;28;20621;-66
2022/11/27 06:08:09;;;;;;;8.57;7.77;;;5.20;99.90;;;;;;4974838;28;20181;-68
2022/11/27 06:10:37;;;;;;;16.23;9.03;;;5.20;99.90;;;;;;4954145;28;20302;-68
2022/11/27 06:13:03;;;;;;;11.57;8.43;;;5.20;99.90;;;;;;4970819;28;20740;-68
2022/11/27 06:15:29;;;;;;;8.40;7.40;;;5.20;99.90;;;;;;4974591;28;20294;-68
2022/11/27 06:17:55;;;;;;;9.17;8.40;;;5.20;99.90;;;;;;4958199;28;20174;-68
2022/11/27 06:20:20;;;;;;;9.30;8.30;;;5.20;99.90;;;;;;4957507;28;20174;-67
2022/11/27 06:22:46;;;;;;;11.30;8.03;;;5.20;99.90;;;;;;4975239;28;20192;-67
2022/11/27 06:25:12;;;;;;;8.90;8.20;;;5.20;99.90;;;;;;4975383;28;20197;-68
2022/11/27 06:27:37;;;;;;;8.43;7.63;;;5.20;99.90;;;;;;4975202;28;20856;-68
2022/11/27 06:30:04;;;;;;;8.07;7.37;;;5.20;99.90;;;;;;4974700;28;20189;-68
2022/11/27 06:32:29;;;;;;;7.23;6.63;;;5.30;99.90;;;;;;4975037;28;20211;-68
2022/11/27 06:34:55;;;;;;;6.70;6.37;;;5.30;99.90;;;;;;4974741;28;20205;-68
2022/11/27 06:37:21;;;;;;;7.43;6.73;;;5.30;99.90;;;;;;4973650;28;20177;-67
2022/11/27 06:39:49;;;;;;;9.93;8.23;;;5.30;99.90;;;;;;4974497;28;20542;-69
2022/11/27 06:42:15;;;;;;;7.30;6.70;;;5.30;99.90;;;;;;4973623;28;20177;-68
2022/11/27 06:44:41;;;;;;;9.57;8.63;;;5.30;99.90;;;;;;4974816;28;20198;-67
2022/11/27 06:47:07;;;;;;;7.67;7.07;;;5.30;99.90;;;;;;4974778;28;20537;-68
2022/11/27 06:49:33;;;;;;;7.43;6.93;;;5.30;99.90;;;;;;4974316;28;20659;-67
2022/11/27 06:51:59;;;;;;;7.70;7.17;;;5.30;99.90;;;;;;4974853;28;20545;-68
2022/11/27 06:54:24;;;;;;;9.13;8.27;;;5.30;99.90;;;;;;4974283;28;20573;-68
2022/11/27 06:56:50;;;;;;;8.27;7.70;;;5.30;99.90;;;;;;4974573;28;20177;-68
2022/11/27 06:59:17;;;;;;;9.00;7.00;;;5.30;99.90;;;;;;4956733;28;20177;-68
2022/11/27 07:01:42;;;;;;;8.47;7.77;;;5.30;99.90;;;;;;4953940;28;20178;-68
2022/11/27 07:04:11;;;;;;;7.73;7.17;;;5.30;99.90;;;;;;4965375;28;20200;-68
2022/11/27 07:06:37;;;;;;;9.77;7.50;;;5.30;99.90;;;;;;4974170;28;20196;-68
2022/11/27 07:09:04;;;;;;;7.80;7.13;;;5.30;99.90;;;;;;4974129;28;20185;-68
2022/11/27 07:11:30;;;;;;;8.40;7.70;;;5.30;99.90;;;;;;4952747;28;20182;-66
2022/11/27 07:13:58;;;;;;;7.10;6.50;;;5.40;99.90;;;;;;4973529;28;20276;-68
2022/11/27 07:16:25;;;;;;;9.30;7.53;;;5.40;99.90;;;;;;4974236;28;20178;-67
2022/11/27 07:18:56;;;;;;;7.10;6.50;;;5.50;99.90;;;;;;4974453;28;20170;-67
2022/11/27 07:21:22;;;;;;;6.77;6.37;;;5.50;99.90;;;;;;4972986;28;20200;-68
2022/11/27 07:23:48;;;;;;;7.40;6.77;;;5.60;99.90;;;;;;4974329;28;20209;-68
2022/11/27 07:26:19;;;;;;;7.67;7.27;;;5.60;99.90;;;;;;4974290;28;20217;-67
2022/11/27 07:28:45;;;;;;;12.60;7.13;;;5.60;99.90;;;;;;4956727;28;20558;-67
2022/11/27 07:31:12;;;;;;;8.97;8.27;;;5.70;99.90;;;;;;4973759;28;20200;-67
2022/11/27 07:33:38;;;;;;;7.40;6.80;;;5.70;99.90;;;;;;4974335;28;20631;-67
2022/11/27 07:36:06;;;;;;;7.73;7.17;;;5.80;99.90;;;;;;4956411;28;20185;-67
2022/11/27 07:38:32;;;;;;;7.70;7.00;;;5.80;99.90;;;;;;4973742;28;20249;-67
2022/11/27 07:41:00;;;;;;;9.20;8.13;;;5.80;99.90;;;;;;4955792;28;20569;-67
2022/11/27 07:43:26;;;;;;;9.93;6.67;;;5.80;99.90;;;;;;4956333;28;20181;-67
2022/11/27 07:45:52;;;;;;;7.60;7.00;;;5.90;99.90;;;;;;4973663;28;20655;-67
2022/11/27 07:48:17;;;;;;;6.87;6.20;;;5.90;99.90;;;;;;4972551;28;20177;-67
2022/11/27 07:50:43;;;;;;;7.50;6.77;;;6.00;99.90;;;;;;4973242;28;20208;-67
2022/11/27 07:53:08;;;;;;;7.43;6.93;;;6.00;99.90;;;;;;4973558;28;20197;-67
2022/11/27 07:55:40;;;;;;;6.70;6.13;;;6.10;99.90;;;;;;4973235;28;20205;-67
2022/11/27 07:58:07;;;;;;;7.30;6.60;;;6.10;99.90;;;;;;4974014;28;20165;-67
2022/11/27 08:00:33;;;;;;;8.67;7.83;;;6.10;99.90;;;;;;4972860;28;20182;-67
2022/11/27 08:03:02;;;;;;;7.77;7.13;;;6.20;99.90;;;;;;4955898;28;20259;-67
2022/11/27 08:05:28;;;;;;;6.43;6.03;;;6.20;99.90;;;;;;4973175;28;20208;-67
2022/11/27 08:07:53;;;;;;;8.67;6.80;;;6.20;99.90;;;;;;4973737;28;20174;-67
2022/11/27 08:10:19;;;;;;;7.10;6.60;;;6.30;99.90;;;;;;4972814;28;20272;-67
2022/11/27 08:12:45;;;;;;;7.50;6.70;;;6.30;99.90;;;;;;4972180;28;20272;-68
2022/11/27 08:15:11;;;;;;;6.80;6.37;;;6.30;99.90;;;;;;4973100;28;20205;-68
2022/11/27 08:17:37;;;;;;;12.00;6.87;;;6.40;99.90;;;;;;4956107;28;20207;-67
2022/11/27 08:20:04;;;;;;;6.87;6.37;;;6.40;99.90;;;;;;4954800;28;20281;-67
2022/11/27 08:22:29;;;;;;;6.10;5.63;;;6.50;99.90;;;;;;4973169;28;20542;-67
2022/11/27 08:24:55;;;;;;;6.60;6.00;;;6.60;99.90;;;;;;4952373;28;20198;-68
2022/11/27 08:27:21;;;;;;;6.63;6.13;;;6.60;99.90;;;;;;4953893;29;20244;-67
2022/11/27 08:29:46;;;;;;;7.23;6.63;;;6.70;99.90;;;;;;4955281;28;20186;-67
2022/11/27 08:32:12;;;;;;;6.77;6.37;;;6.80;99.90;;;;;;4972902;28;20257;-67
2022/11/27 08:34:38;;;;;;;7.37;6.17;;;6.90;99.90;;;;;;4972636;28;20217;-67
2022/11/27 08:37:04;;;;;;;7.93;7.13;;;6.90;99.90;;;;;;4973064;28;20562;-67
2022/11/27 08:39:30;;;;;;;6.63;6.17;;;7.00;99.90;;;;;;4972429;28;20180;-68
2022/11/27 08:41:55;;;;;;;6.80;6.40;;;7.10;99.90;;;;;;4971825;28;20174;-68
2022/11/27 08:44:21;;;;;;;8.17;6.70;;;7.10;99.90;;;;;;4972742;28;20679;-68
2022/11/27 08:46:47;;;;;;;6.73;6.33;;;7.20;99.90;;;;;;4972959;28;20182;-68
2022/11/27 08:49:12;;;;;;;8.27;7.77;;;7.30;99.90;;;;;;4972621;28;20181;-68
2022/11/27 08:51:38;;;;;;;7.90;7.30;;;7.40;99.90;;;;;;4953462;29;20193;-68
2022/11/27 08:54:04;;;;;;;8.00;7.20;;;7.40;99.90;;;;;;4952277;28;20220;-68
2022/11/27 08:56:29;;;;;;;7.80;7.30;;;7.50;99.90;;;;;;4971432;28;20647;-67
2022/11/27 08:58:56;;;;;;;7.53;7.13;;;7.50;99.90;;;;;;4971596;28;20178;-68
2022/11/27 09:01:27;;;;;;;8.40;7.63;;;7.50;99.90;;;;;;4972284;28;20268;-68
2022/11/27 09:03:53;;;;;;;8.67;7.77;;;7.40;99.90;;;;;;4955458;28;20181;-67
2022/11/27 09:06:21;;;;;;;9.10;8.50;;;7.40;99.90;;;;;;4951977;28;20261;-68
2022/11/27 09:08:47;;;;;;;9.00;8.30;;;7.40;99.90;;;;;;4952211;29;20273;-67
2022/11/27 09:11:16;;;;;;;9.30;8.40;;;7.50;99.90;;;;;;4967532;28;20550;-68
2022/11/27 09:13:42;;;;;;;8.53;8.03;;;7.50;99.90;;;;;;4955099;28;20650;-68
2022/11/27 09:16:11;;;;;;;8.47;7.83;;;7.50;99.90;;;;;;4951977;28;20269;-68
2022/11/27 09:18:37;;;;;;;8.40;7.67;;;7.50;99.90;;;;;;4952041;29;20178;-67
2022/11/27 09:21:06;;;;;;;7.47;6.97;;;7.60;99.90;;;;;;4950011;28;20537;-68
2022/11/27 09:23:32;;;;;;;8.77;8.00;;;7.60;99.90;;;;;;4972604;28;20543;-68
2022/11/27 09:26:03;;;;;;;9.43;8.57;;;7.70;99.90;;;;;;4951891;28;20202;-68
2022/11/27 09:28:29;;;;;;;8.67;7.90;;;7.80;99.90;;;;;;4953261;29;20175;-67
2022/11/27 09:30:56;;;;;;;8.73;8.00;;;7.80;99.90;;;;;;4967904;28;20532;-67
2022/11/27 09:33:23;;;;;;;8.07;7.47;;;7.90;99.90;;;;;;4976409;28;20568;-68
2022/11/27 09:35:49;;;;;;;7.53;6.83;;;8.00;99.90;;;;;;4955926;28;20899;-67
2022/11/27 09:38:14;;;;;;;6.77;6.20;;;8.10;99.90;;;;;;4970821;28;20181;-67
2022/11/27 09:40:49;;;;;;;7.60;6.87;;;8.20;99.90;;;;;;4975574;28;20181;-68
2022/11/27 09:43:18;;;;;;;10.03;6.97;;;8.20;99.90;;;;;;4958982;28;20203;-68
2022/11/27 09:45:51;;;;;;;7.33;6.63;;;8.40;99.90;;;;;;4974545;28;20201;-67
2022/11/27 09:48:38;;;;;;;7.33;6.40;;;8.60;99.90;;;;;;4976379;28;20181;-68
2022/11/27 09:51:14;;;;;;;6.77;6.27;;;8.70;99.90;;;;;;4975603;28;20173;-68
2022/11/27 09:54:14;;;;;;;7.17;6.57;;;8.70;95.80;;;;;;4975902;28;20207;-67
2022/11/27 09:56:43;;;;;;;7.60;7.10;;;8.80;96.70;;;;;;4975690;28;20677;-68
2022/11/27 09:59:16;;;;;;;8.27;7.57;;;8.70;96.40;;;;;;4975608;28;20576;-68
2022/11/27 10:01:42;;;;;;;9.70;7.90;;;8.70;99.70;;;;;;4975564;28;20177;-67
2022/11/27 10:04:11;;;;;;;8.43;7.73;;;8.70;99.90;;;;;;4975926;28;20336;-68
2022/11/27 10:07:07;;;;;;;13.00;7.80;;;8.70;99.90;;;;;;4975504;28;20193;-67
2022/11/27 10:09:57;;;;;;;8.67;7.60;;;8.70;99.90;;;;;;4975232;28;20231;-67
2022/11/27 10:12:58;;;;;;;7.80;7.10;;;8.60;99.90;;;;;;4955136;29;20269;-68
2022/11/27 10:15:51;;;;;;;7.90;7.20;;;8.50;99.90;;;;;;4945044;28;20310;-67
2022/11/27 10:18:28;;;;;;;7.03;6.60;;;8.50;99.90;;;;;;4958297;28;20181;-68
2022/11/27 10:21:06;;;;;;;7.03;6.43;;;8.50;99.90;;;;;;4975526;28;20557;-67
2022/11/27 10:23:59;;;;;;;14.23;6.97;;;8.60;99.90;;;;;;4956815;28;20192;-67
2022/11/27 10:26:33;;;;;;;7.73;6.43;;;8.60;99.90;;;;;;4957431;28;20275;-67
2022/11/27 10:29:26;;;;;;;7.10;6.50;;;8.50;99.90;;;;;;4975513;28;20221;-67
2022/11/27 10:31:57;;;;;;;7.47;6.83;;;8.60;99.90;;;;;;4977047;28;20189;-68
2022/11/27 10:34:44;;;;;;;7.43;6.80;;;8.60;99.90;;;;;;4975214;28;20236;-68
2022/11/27 10:37:23;;;;;;;10.87;8.03;;;8.60;99.90;;;;;;4974874;28;20189;-68
2022/11/27 10:39:57;;;;;;;10.37;7.97;;;8.60;99.90;;;;;;4954224;28;20284;-67
2022/11/27 10:42:38;;;;;;;8.13;7.30;;;8.60;99.90;;;;;;4973892;28;20235;-67
2022/11/27 10:45:19;;;;;;;6.63;6.23;;;8.70;99.90;;;;;;4957403;28;20210;-67
2022/11/27 10:47:47;;;;;;;8.03;7.43;;;8.70;99.90;;;;;;4975092;28;20180;-67
2022/11/27 10:50:17;;;;;;;7.63;7.03;;;8.70;99.90;;;;;;4973025;28;20185;-67
2022/11/27 10:52:52;;;;;;;7.53;6.83;;;8.70;99.90;;;;;;4974615;28;20289;-67
2022/11/27 10:55:44;;;;;;;9.13;8.23;;;8.80;99.90;;;;;;4957184;28;20216;-68
2022/11/27 10:58:23;;;;;;;10.57;8.27;;;8.80;99.90;;;;;;4953632;28;20200;-67
2022/11/27 11:01:09;;;;;;;8.47;7.67;;;8.90;99.90;;;;;;4974195;28;20260;-68
2022/11/27 11:03:35;;;;;;;10.37;7.93;;;8.80;93.90;;;;;;4974013;28;20221;-68
2022/11/27 11:06:05;;;;;;;7.30;6.70;;;8.80;99.80;;;;;;4957206;28;20197;-67
2022/11/27 11:08:35;;;;;;;7.53;6.83;;;8.90;93.30;;;;;;4974214;28;20189;-67
2022/11/27 11:11:04;;;;;;;7.33;6.77;;;8.90;90.70;;;;;;4973581;28;20185;-67
2022/11/27 11:13:39;;;;;;;7.57;6.10;;;8.90;90.50;;;;;;4974069;28;20209;-68
2022/11/27 11:16:06;;;;;;;7.63;6.97;;;8.90;69.90;;;;;;4974821;28;20173;-68
2022/11/27 11:18:42;;;;;;;9.57;6.90;;;8.90;56.70;;;;;;4974280;28;20208;-67
2022/11/27 11:21:27;;;;;;;7.60;6.90;;;8.90;48.70;;;;;;4973359;28;20196;-68
2022/11/27 11:24:13;;;;;;;7.23;6.63;;;8.90;56.00;;;;;;4973928;28;20220;-67
2022/11/27 11:26:48;;;;;;;6.83;6.23;;;8.90;45.10;;;;;;4956733;28;20223;-67
2022/11/27 11:29:40;;;;;;;6.27;5.77;;;8.90;60.30;;;;;;4973857;28;20680;-67
2022/11/27 11:32:09;;;;;;;9.90;8.43;;;8.80;91.20;;;;;;4969706;28;20252;-68
2022/11/27 11:34:44;;;;;;;6.93;6.40;;;8.70;98.90;;;;;;4973711;28;20296;-68
2022/11/27 11:37:32;;;;;;;7.00;6.40;;;8.70;99.90;;;;;;4974007;28;20183;-68
2022/11/27 11:39:57;;;;;;;6.73;5.80;;;8.60;81.80;;;;;;4972305;28;20177;-68
2022/11/27 11:42:29;;;;;;;6.70;6.30;;;8.70;80.80;;;;;;4956642;28;20523;-68
2022/11/27 11:45:15;;;;;;;7.47;6.60;;;8.70;90.10;;;;;;4953017;28;20292;-68
2022/11/27 11:47:48;;;;;;;6.20;5.70;;;8.80;73.40;;;;;;4953945;28;20675;-68
2022/11/27 11:50:23;;;;;;;7.33;6.63;;;8.80;28.90;;;;;;4973396;28;20177;-68
2022/11/27 11:53:30;;;;;;;7.30;6.80;;;8.80;29.40;;;;;;4973360;28;20185;-67
2022/11/27 11:56:34;;;;;;;6.60;6.10;;;8.90;19.90;;;;;;4955887;28;20213;-67
2022/11/27 11:59:36;;;;;;;7.10;6.50;;;9.10;14.90;;;;;;4931138;29;20218;-68
2022/11/27 12:02:25;;;;;;;7.87;7.27;;;9.20;1.00;;;;;;4973575;28;20591;-68
2022/11/27 12:04:56;;;;;;;6.53;6.10;;;9.30;1.00;;;;;;4973650;28;20283;-67
2022/11/27 12:08:07;;;;;;;7.27;6.63;;;9.40;1.00;;;;;;4955418;28;20194;-68
2022/11/27 12:11:11;;;;;;;7.03;6.40;;;9.50;1.00;;;;;;4952226;28;20178;-68
2022/11/27 12:13:57;;;;;;;8.23;5.83;;;9.50;1.00;;;;;;4953456;28;20209;-67
2022/11/27 12:16:28;;;;;;;6.90;6.23;;;9.50;1.00;;;;;;4972609;28;20173;-68
2022/11/27 12:19:28;;;;;;;9.50;5.90;;;9.50;1.00;;;;;;4973025;28;20185;-68
2022/11/27 12:22:04;;;;;;;5.57;5.03;;;9.50;1.00;;;;;;4971968;28;20174;-67
2022/11/27 12:24:47;;;;;;;6.03;5.63;;;9.60;1.00;;;;;;4955446;28;20201;-68
2022/11/27 12:27:30;;;;;;;6.37;5.50;;;9.60;1.00;;;;;;4972972;28;20288;-67
2022/11/27 12:30:14;;;;;;;6.27;5.63;;;9.60;1.00;;;;;;4955277;28;20191;-68
2022/11/27 12:33:13;;;;;;;5.33;5.03;;;9.70;1.00;;;;;;4973090;28;20228;-67
2022/11/27 12:35:49;;;;;;;5.43;5.13;;;9.70;1.00;;;;;;4953470;28;20194;-67
2022/11/27 12:38:15;;;;;;;9.63;5.60;;;9.70;1.00;;;;;;4940149;28;20173;-68
2022/11/27 12:41:20;;;;;;;5.80;5.43;;;9.70;1.00;;;;;;4954836;28;20667;-68
2022/11/27 12:43:54;;;;;;;5.80;5.40;;;9.70;1.00;;;;;;4951265;28;20185;-68
2022/11/27 12:46:29;;;;;;;6.70;5.23;;;9.70;1.00;;;;;;4955637;28;20187;-68
2022/11/27 12:49:09;;;;;;;5.50;5.10;;;9.80;1.00;;;;;;4972541;28;20267;-68
2022/11/27 12:51:46;;;;;;;6.07;5.47;;;9.80;1.00;;;;;;4955100;28;20181;-69
2022/11/27 12:54:29;;;;;;;6.00;5.07;;;9.80;1.00;;;;;;4972527;28;20220;-67
2022/11/27 12:57:01;;;;;;;6.00;5.60;;;9.80;1.00;;;;;;4972754;28;20235;-68
2022/11/27 13:00:11;;;;;;;6.17;5.63;;;9.80;1.00;;;;;;4972086;28;20190;-67
2022/11/27 13:02:48;;;;;;;5.93;5.60;;;9.90;1.00;;;;;;4972181;28;20231;-68
2022/11/27 13:05:27;;;;;;;6.13;5.73;;;10.00;1.00;;;;;;4954718;28;20541;-68
2022/11/27 13:07:58;;;;;;;5.97;5.53;;;10.00;1.00;;;;;;4954943;28;20239;-68
2022/11/27 13:10:31;;;;;;;5.63;5.20;;;10.00;1.00;;;;;;4972311;28;20165;-68
2022/11/27 13:13:19;;;;;;;6.07;5.60;;;10.10;1.00;;;;;;4972367;28;20181;-68
2022/11/27 13:15:53;;;;;;;6.57;6.07;;;10.20;1.00;;;;;;4971140;28;20201;-68
2022/11/27 13:18:22;;;;;;;5.43;5.10;;;10.30;1.00;;;;;;4956080;28;20193;-68
2022/11/27 13:20:50;;;;;;;7.67;4.70;;;10.30;1.00;;;;;;4972219;28;20251;-67
2022/11/27 13:23:15;;;;;;;5.77;5.37;;;10.40;1.00;;;;;;4972291;28;20185;-68